Time;durP1;ratioP1;P1;durP2;ratioP2;P2;SDS_P1;SDS_P2;PMS_P1;PMS_P2;Temp;Humidity;BMP_temperature;BMP_pressure;BME280_temperature;BME280_humidity;BME280_pressure;Samples;Min_cycle;Max_cycle;Signal;HPM_P1;HPM_P2
2023/01/30 00:00:15;;;;;;;32.00;22.13;;;6.10;99.90;;;;;;5071074;28;20625;-71
2023/01/30 00:02:40;;;;;;;34.35;22.67;;;6.10;99.90;;;;;;5074286;28;20040;-71
2023/01/30 00:05:06;;;;;;;31.42;21.60;;;6.10;99.90;;;;;;5074687;28;20127;-71
2023/01/30 00:07:32;;;;;;;34.33;20.40;;;6.10;99.90;;;;;;5074651;28;20094;-71
2023/01/30 00:09:57;;;;;;;33.55;21.20;;;6.20;99.90;;;;;;5074778;28;20075;-71
2023/01/30 00:12:23;;;;;;;32.53;21.92;;;6.10;99.90;;;;;;5057867;28;20386;-71
2023/01/30 00:14:49;;;;;;;33.78;21.02;;;6.20;99.90;;;;;;5074524;28;20052;-71
2023/01/30 00:17:14;;;;;;;32.10;21.25;;;6.20;99.90;;;;;;5074464;28;20055;-71
2023/01/30 00:19:40;;;;;;;31.80;19.85;;;6.20;99.90;;;;;;5074278;28;20040;-71
2023/01/30 00:22:05;;;;;;;33.10;20.02;;;6.20;99.90;;;;;;5074315;28;20048;-71
2023/01/30 00:24:31;;;;;;;29.05;19.85;;;6.30;99.90;;;;;;5074320;28;20382;-71
2023/01/30 00:26:56;;;;;;;28.02;18.98;;;6.20;99.90;;;;;;5074549;28;20072;-71
2023/01/30 00:29:22;;;;;;;28.67;19.30;;;6.30;99.90;;;;;;5074213;28;20505;-71
2023/01/30 00:31:47;;;;;;;29.50;18.15;;;6.30;99.90;;;;;;5074210;28;20141;-71
2023/01/30 00:34:13;;;;;;;27.35;18.23;;;6.30;99.90;;;;;;5074140;28;20045;-71
2023/01/30 00:36:38;;;;;;;33.30;18.67;;;6.30;99.90;;;;;;5074373;28;20048;-71
2023/01/30 00:39:04;;;;;;;27.20;17.60;;;6.40;99.90;;;;;;5074089;28;20523;-71
2023/01/30 00:47:04;;;;;;;32.78;17.92;;;6.40;99.90;;;;;;5074043;28;20052;-71
2023/01/30 00:47:07;;;;;;;27.63;16.83;;;6.40;99.90;;;;;;5073986;28;20071;-72
2023/01/30 00:49:34;;;;;;;24.73;15.00;;;6.50;99.90;;;;;;5057104;28;20115;-71
2023/01/30 00:52:00;;;;;;;25.52;14.18;;;6.50;99.90;;;;;;5074976;28;20046;-71
2023/01/30 00:54:26;;;;;;;23.58;12.55;;;6.50;99.90;;;;;;5074067;28;20131;-71
2023/01/30 00:56:52;;;;;;;24.27;12.15;;;6.60;99.90;;;;;;5073775;28;20579;-71
2023/01/30 00:59:18;;;;;;;23.17;12.30;;;6.60;99.90;;;;;;5073641;28;20044;-71
2023/01/30 01:01:43;;;;;;;20.70;10.93;;;6.60;99.90;;;;;;5073624;28;20049;-71
2023/01/30 01:04:09;;;;;;;21.25;11.88;;;6.70;99.90;;;;;;5075110;28;20043;-71
2023/01/30 01:06:36;;;;;;;19.08;10.50;;;6.70;99.90;;;;;;5073552;28;20044;-72
2023/01/30 01:09:02;;;;;;;22.70;10.93;;;6.70;99.90;;;;;;5073754;28;20035;-71
2023/01/30 01:11:28;;;;;;;20.17;9.85;;;6.70;99.90;;;;;;5073924;28;20052;-71
2023/01/30 01:13:59;;;;;;;24.55;11.63;;;6.80;99.90;;;;;;5073428;28;20051;-71
2023/01/30 01:16:26;;;;;;;24.65;10.82;;;6.70;99.90;;;;;;5073677;28;20091;-71
2023/01/30 01:18:53;;;;;;;22.70;10.73;;;6.70;99.90;;;;;;5073305;28;20501;-71
2023/01/30 01:21:19;;;;;;;23.42;11.15;;;6.70;99.90;;;;;;5073071;28;20409;-71
2023/01/30 01:23:50;;;;;;;23.63;11.48;;;6.70;99.90;;;;;;5073167;28;20040;-71
2023/01/30 01:26:16;;;;;;;24.77;11.35;;;6.70;99.90;;;;;;5056569;28;20045;-71
2023/01/30 01:28:41;;;;;;;23.15;11.40;;;6.70;99.90;;;;;;5073122;28;20040;-71
2023/01/30 01:31:12;;;;;;;23.05;11.02;;;6.60;99.90;;;;;;5072969;28;20041;-71
2023/01/30 01:33:38;;;;;;;21.33;11.07;;;6.70;99.90;;;;;;5073204;28;20551;-71
2023/01/30 01:36:04;;;;;;;23.38;10.63;;;6.60;99.90;;;;;;5074747;28;20119;-71
2023/01/30 01:38:30;;;;;;;22.10;10.30;;;6.60;99.90;;;;;;5073091;28;20036;-71
2023/01/30 01:41:01;;;;;;;19.33;9.07;;;6.60;99.90;;;;;;5072961;28;20490;-71
2023/01/30 01:43:31;;;;;;;17.70;8.43;;;6.60;99.90;;;;;;5073041;28;20113;-71
2023/01/30 01:46:11;;;;;;;14.40;6.50;;;6.60;99.90;;;;;;5072715;28;20056;-71
2023/01/30 01:49:05;;;;;;;15.93;7.45;;;6.60;99.90;;;;;;5073979;28;20072;-71
2023/01/30 01:51:35;;;;;;;13.43;6.43;;;6.60;99.90;;;;;;5071165;28;20084;-71
2023/01/30 01:54:18;;;;;;;14.95;6.30;;;6.70;99.90;;;;;;5073849;28;20405;-71
2023/01/30 01:56:46;;;;;;;13.67;5.43;;;6.70;99.90;;;;;;5072595;28;20117;-71
2023/01/30 01:59:29;;;;;;;8.90;5.40;;;6.70;99.90;;;;;;5073942;28;20036;-71
2023/01/30 02:02:04;;;;;;;9.57;4.82;;;6.70;99.90;;;;;;5072405;28;20044;-71
2023/01/30 02:07:19;;;;;;;11.95;4.85;;;6.70;99.90;;;;;;5072426;28;20091;-71
2023/01/30 02:09:45;;;;;;;8.68;4.63;;;6.70;99.90;;;;;;5072212;28;20032;-71
2023/01/30 02:12:13;;;;;;;10.88;5.15;;;6.70;99.90;;;;;;5072210;28;20050;-71
2023/01/30 02:14:40;;;;;;;8.60;3.88;;;6.70;99.90;;;;;;5073497;28;20048;-71
2023/01/30 02:17:05;;;;;;;8.80;4.30;;;6.70;99.90;;;;;;5072456;28;20040;-71
2023/01/30 02:19:53;;;;;;;14.48;4.75;;;6.70;99.90;;;;;;5072369;28;20397;-71
2023/01/30 02:22:25;;;;;;;13.20;4.63;;;6.80;99.90;;;;;;5072120;28;20516;-71
2023/01/30 02:24:50;;;;;;;13.02;4.82;;;6.80;99.90;;;;;;5071604;28;20039;-71
2023/01/30 02:27:47;;;;;;;10.55;4.38;;;6.80;99.90;;;;;;5072339;28;20032;-71
2023/01/30 02:31:03;;;;;;;13.20;4.18;;;6.80;99.90;;;;;;5071977;28;20144;-71
2023/01/30 02:33:43;;;;;;;12.02;4.32;;;6.80;99.90;;;;;;5061157;28;20120;-71
2023/01/30 02:36:34;;;;;;;11.88;3.90;;;6.80;99.90;;;;;;5073227;28;20032;-71
2023/01/30 02:39:13;;;;;;;11.23;3.95;;;6.90;99.90;;;;;;5071957;28;20111;-71
2023/01/30 02:42:04;;;;;;;12.63;4.60;;;6.80;99.90;;;;;;5071853;28;20102;-71
2023/01/30 02:44:51;;;;;;;17.67;5.38;;;6.80;99.90;;;;;;5072163;28;20044;-71
2023/01/30 02:47:38;;;;;;;14.32;4.68;;;6.90;99.90;;;;;;5071884;28;20125;-71
2023/01/30 02:50:14;;;;;;;12.77;4.60;;;6.90;99.90;;;;;;5071551;28;20057;-71
2023/01/30 02:52:41;;;;;;;14.30;4.50;;;6.90;99.90;;;;;;5071848;28;20051;-71
2023/01/30 02:55:20;;;;;;;20.85;5.82;;;6.90;99.90;;;;;;5072029;28;20067;-71
2023/01/30 02:57:46;;;;;;;19.90;5.90;;;6.90;99.90;;;;;;5071826;28;20129;-71
2023/01/30 03:00:14;;;;;;;16.98;5.38;;;6.90;99.90;;;;;;5073189;28;20067;-71
2023/01/30 03:02:46;;;;;;;21.77;6.63;;;6.90;99.90;;;;;;5071663;28;20044;-71
2023/01/30 03:05:35;;;;;;;20.10;5.05;;;6.90;99.90;;;;;;5071712;28;20047;-71
2023/01/30 03:08:23;;;;;;;21.90;5.65;;;6.90;99.90;;;;;;5071736;28;20044;-71
2023/01/30 03:11:02;;;;;;;25.77;5.90;;;6.90;99.90;;;;;;5071600;28;20124;-71
2023/01/30 03:13:33;;;;;;;23.77;5.15;;;7.00;99.90;;;;;;5072839;28;20048;-71
2023/01/30 03:16:14;;;;;;;19.95;4.70;;;6.90;99.90;;;;;;5071860;28;20041;-71
2023/01/30 03:18:42;;;;;;;22.48;5.13;;;7.00;99.90;;;;;;5071851;28;20115;-71
2023/01/30 03:21:08;;;;;;;22.10;5.30;;;7.00;99.90;;;;;;5071359;28;20047;-71
2023/01/30 03:23:33;;;;;;;21.98;5.45;;;7.00;99.90;;;;;;5073319;28;20048;-71
2023/01/30 03:26:00;;;;;;;21.92;4.63;;;7.00;99.90;;;;;;5071754;28;20033;-71
2023/01/30 03:28:27;;;;;;;23.75;5.05;;;7.00;99.90;;;;;;5071457;28;20048;-71
2023/01/30 03:30:52;;;;;;;17.10;4.43;;;7.00;99.90;;;;;;5071610;28;20040;-71
2023/01/30 03:33:18;;;;;;;21.85;4.65;;;7.00;99.90;;;;;;5072655;28;20455;-71
2023/01/30 03:35:44;;;;;;;23.75;5.05;;;7.10;99.90;;;;;;5071778;28;20052;-71
2023/01/30 03:38:10;;;;;;;16.40;3.95;;;7.10;99.90;;;;;;5075193;28;20056;-71
2023/01/30 03:40:35;;;;;;;29.45;4.78;;;7.10;99.90;;;;;;5075347;28;20056;-71
2023/01/30 03:43:01;;;;;;;22.10;4.25;;;7.10;99.90;;;;;;5075080;28;20409;-71
2023/01/30 03:45:26;;;;;;;22.40;4.70;;;7.10;99.90;;;;;;5076342;28;20417;-71
2023/01/30 03:47:52;;;;;;;31.13;5.72;;;7.10;99.90;;;;;;5075003;28;20044;-71
2023/01/30 03:50:18;;;;;;;24.63;4.68;;;7.10;99.90;;;;;;5058394;28;20040;-71
2023/01/30 03:52:43;;;;;;;20.48;4.40;;;7.10;99.90;;;;;;5074950;28;20553;-71
2023/01/30 03:55:09;;;;;;;17.70;4.72;;;7.10;99.90;;;;;;5075172;28;20405;-71
2023/01/30 03:57:35;;;;;;;23.42;4.13;;;7.10;99.90;;;;;;5075138;28;20072;-71
2023/01/30 04:00:01;;;;;;;18.88;3.85;;;7.10;99.90;;;;;;5074751;28;20079;-71
2023/01/30 04:02:26;;;;;;;21.33;4.82;;;7.10;99.90;;;;;;5074664;28;20048;-71
2023/01/30 04:04:52;;;;;;;24.75;4.65;;;7.10;99.90;;;;;;5075008;28;20064;-71
2023/01/30 04:07:18;;;;;;;21.38;4.90;;;7.10;99.90;;;;;;5074684;28;20082;-71
2023/01/30 04:09:43;;;;;;;22.05;4.72;;;7.10;99.90;;;;;;5074556;28;20036;-71
2023/01/30 04:12:09;;;;;;;27.38;4.75;;;7.10;99.90;;;;;;5074821;28;20074;-71
2023/01/30 04:14:35;;;;;;;20.85;4.70;;;7.00;99.90;;;;;;5074531;28;20041;-71
2023/01/30 04:17:00;;;;;;;22.95;5.20;;;7.10;99.90;;;;;;5074522;28;20045;-71
2023/01/30 04:19:26;;;;;;;22.83;4.05;;;7.10;99.90;;;;;;5074412;28;20113;-71
2023/01/30 04:21:51;;;;;;;25.40;4.00;;;7.00;99.90;;;;;;5074357;28;20044;-71
2023/01/30 04:24:17;;;;;;;21.67;4.68;;;7.00;99.90;;;;;;5075601;28;20036;-71
2023/01/30 04:26:43;;;;;;;18.65;4.18;;;7.00;99.90;;;;;;5074332;28;20052;-71
2023/01/30 04:29:08;;;;;;;18.98;3.95;;;6.90;99.90;;;;;;5074532;28;20036;-71
2023/01/30 04:31:34;;;;;;;27.42;5.22;;;6.90;99.90;;;;;;5075674;28;20125;-71
2023/01/30 04:33:59;;;;;;;22.27;4.05;;;6.90;99.90;;;;;;5074489;28;20040;-71
2023/01/30 04:36:27;;;;;;;22.92;4.10;;;6.90;99.90;;;;;;5075394;28;20040;-71
2023/01/30 04:38:53;;;;;;;21.40;3.60;;;6.80;99.90;;;;;;5074126;28;20037;-71
2023/01/30 04:41:19;;;;;;;20.13;3.55;;;6.80;99.90;;;;;;5073916;28;20040;-71
2023/01/30 04:43:44;;;;;;;19.25;3.88;;;6.80;99.90;;;;;;5075265;28;20098;-71
2023/01/30 04:46:10;;;;;;;22.58;4.18;;;6.80;99.90;;;;;;5074265;28;20037;-71
2023/01/30 04:48:35;;;;;;;21.70;3.92;;;6.80;99.90;;;;;;5074849;28;20526;-71
2023/01/30 04:51:01;;;;;;;17.52;3.92;;;6.80;99.90;;;;;;5074157;28;20036;-71
2023/01/30 04:53:26;;;;;;;23.02;4.60;;;6.80;99.90;;;;;;5074079;28;20374;-71
2023/01/30 04:55:52;;;;;;;22.40;4.05;;;6.80;99.90;;;;;;5073807;28;20382;-71
2023/01/30 04:58:18;;;;;;;28.73;4.25;;;6.80;99.90;;;;;;5073764;28;20160;-71
2023/01/30 05:00:44;;;;;;;24.27;4.57;;;6.80;99.90;;;;;;5073589;28;20043;-71
2023/01/30 05:03:09;;;;;;;21.60;5.15;;;6.80;99.90;;;;;;5073641;28;20051;-71
2023/01/30 05:05:35;;;;;;;24.27;4.20;;;6.70;99.90;;;;;;5073570;28;20032;-71
2023/01/30 05:08:01;;;;;;;21.42;4.20;;;6.70;99.90;;;;;;5073564;28;20068;-71
2023/01/30 05:10:27;;;;;;;23.17;4.15;;;6.60;99.90;;;;;;5073462;28;20043;-71
2023/01/30 05:12:52;;;;;;;26.83;4.10;;;6.60;99.90;;;;;;5074774;28;20045;-71
2023/01/30 05:15:18;;;;;;;25.25;4.28;;;6.50;99.90;;;;;;5074087;28;20036;-71
2023/01/30 05:17:44;;;;;;;26.60;4.15;;;6.50;99.90;;;;;;5073662;28;20054;-71
2023/01/30 05:20:11;;;;;;;30.23;5.68;;;6.50;99.90;;;;;;5073545;28;20389;-71
2023/01/30 05:22:36;;;;;;;26.98;4.75;;;6.50;99.90;;;;;;5073161;28;20041;-72
2023/01/30 05:25:02;;;;;;;26.95;5.20;;;6.50;99.90;;;;;;5073202;28;20033;-71
2023/01/30 05:27:28;;;;;;;29.40;4.05;;;6.50;99.90;;;;;;5073136;28;20036;-71
2023/01/30 05:29:53;;;;;;;27.95;4.15;;;6.50;99.90;;;;;;5072988;28;20045;-71
2023/01/30 05:32:19;;;;;;;22.58;4.43;;;6.50;99.90;;;;;;5074239;28;20050;-71
2023/01/30 05:34:47;;;;;;;28.58;4.90;;;6.50;99.90;;;;;;5072972;28;20036;-71
2023/01/30 05:37:12;;;;;;;25.83;5.05;;;6.50;99.90;;;;;;5074227;28;20040;-71
2023/01/30 05:39:38;;;;;;;24.40;4.20;;;6.50;99.90;;;;;;5074116;28;20393;-71
2023/01/30 05:42:04;;;;;;;24.35;4.32;;;6.40;99.90;;;;;;5074055;28;20051;-71
2023/01/30 05:44:30;;;;;;;28.27;5.00;;;6.30;99.90;;;;;;5072844;28;20059;-71
2023/01/30 05:46:55;;;;;;;24.08;4.50;;;6.30;99.90;;;;;;5072768;28;20569;-71
2023/01/30 05:49:21;;;;;;;25.95;4.63;;;6.30;99.90;;;;;;5072625;28;20066;-71
2023/01/30 05:51:47;;;;;;;28.95;4.72;;;6.20;99.90;;;;;;5072557;28;20036;-71
2023/01/30 05:54:12;;;;;;;24.88;5.05;;;6.20;99.90;;;;;;5072643;28;20048;-71
2023/01/30 05:56:38;;;;;;;33.50;4.88;;;6.10;99.90;;;;;;5072543;28;20051;-71
2023/01/30 05:59:04;;;;;;;28.38;5.45;;;6.10;99.90;;;;;;5071841;28;20032;-71
2023/01/30 06:01:30;;;;;;;28.77;4.72;;;6.10;99.90;;;;;;5072561;28;20409;-71
2023/01/30 06:03:57;;;;;;;30.23;5.35;;;6.10;99.90;;;;;;5072674;28;20055;-71
2023/01/30 06:06:23;;;;;;;32.47;5.35;;;6.00;99.90;;;;;;5072679;28;20097;-71
2023/01/30 06:08:52;;;;;;;27.77;5.00;;;6.00;99.90;;;;;;5072309;28;20431;-71
2023/01/30 06:11:18;;;;;;;30.27;4.60;;;6.00;99.90;;;;;;5072983;28;20519;-71
2023/01/30 06:13:44;;;;;;;25.05;4.60;;;6.00;99.90;;;;;;5072309;28;20044;-71
2023/01/30 06:16:11;;;;;;;28.20;4.30;;;6.00;99.90;;;;;;5073509;28;20032;-71
2023/01/30 06:18:37;;;;;;;33.58;5.47;;;6.00;99.90;;;;;;5072183;28;20044;-71
2023/01/30 06:21:03;;;;;;;24.08;4.18;;;6.00;99.90;;;;;;5072017;28;20043;-71
2023/01/30 06:23:29;;;;;;;28.45;4.50;;;5.90;99.90;;;;;;5072151;28;20406;-71
2023/01/30 06:25:55;;;;;;;26.63;5.00;;;6.00;99.90;;;;;;5072381;28;20494;-71
2023/01/30 06:28:22;;;;;;;27.75;3.97;;;5.90;99.90;;;;;;5055391;28;20047;-71
2023/01/30 06:30:48;;;;;;;32.10;4.80;;;6.00;99.90;;;;;;5071982;28;20040;-70
2023/01/30 06:33:14;;;;;;;25.42;4.85;;;6.00;99.90;;;;;;5072013;28;20044;-72
2023/01/30 06:35:41;;;;;;;22.83;3.80;;;6.00;99.90;;;;;;5071931;28;20040;-71
2023/01/30 06:38:12;;;;;;;24.95;4.15;;;6.00;99.90;;;;;;5072170;28;20094;-71
2023/01/30 06:40:38;;;;;;;30.98;5.20;;;6.00;99.90;;;;;;5071883;28;20044;-71
2023/01/30 06:43:04;;;;;;;29.88;4.35;;;6.00;99.90;;;;;;5071840;28;20408;-71
2023/01/30 06:45:29;;;;;;;29.17;4.72;;;6.00;99.90;;;;;;5071837;28;20032;-70
2023/01/30 06:47:55;;;;;;;23.75;4.30;;;6.00;99.90;;;;;;5072144;28;20066;-71
2023/01/30 06:50:24;;;;;;;23.65;4.20;;;6.10;99.90;;;;;;5071664;28;20394;-71
2023/01/30 06:52:51;;;;;;;28.17;4.90;;;6.10;99.90;;;;;;5072137;28;20532;-71
2023/01/30 06:55:19;;;;;;;21.13;4.18;;;6.10;99.90;;;;;;5073304;28;20089;-71
2023/01/30 06:57:45;;;;;;;34.13;5.00;;;6.00;99.90;;;;;;5071754;28;20052;-71
2023/01/30 07:00:14;;;;;;;28.60;4.60;;;6.10;99.90;;;;;;5072853;28;20115;-71
2023/01/30 07:02:40;;;;;;;30.77;5.03;;;6.10;99.90;;;;;;5071722;28;20153;-71
2023/01/30 07:05:07;;;;;;;29.00;4.90;;;6.00;99.90;;;;;;5071951;28;20135;-71
2023/01/30 07:07:34;;;;;;;20.63;4.05;;;6.00;99.90;;;;;;5071710;28;20110;-71
2023/01/30 07:10:00;;;;;;;29.00;5.45;;;6.00;99.90;;;;;;5072702;28;20040;-69
2023/01/30 07:12:26;;;;;;;31.90;5.53;;;6.00;99.90;;;;;;5075725;28;20040;-70
2023/01/30 07:14:52;;;;;;;29.85;5.43;;;6.00;99.90;;;;;;5075695;28;20044;-68
2023/01/30 07:17:19;;;;;;;23.90;4.72;;;6.00;99.90;;;;;;5076950;28;20485;-69
2023/01/30 07:19:44;;;;;;;32.08;5.53;;;6.00;99.90;;;;;;5075783;28;20036;-69
2023/01/30 07:22:10;;;;;;;23.25;4.55;;;6.00;99.90;;;;;;5075495;28;20504;-69
2023/01/30 07:24:37;;;;;;;31.55;5.53;;;6.00;99.90;;;;;;5075525;28;20033;-69
2023/01/30 07:27:03;;;;;;;24.65;5.25;;;6.00;99.90;;;;;;5075503;28;20047;-69
2023/01/30 07:29:28;;;;;;;26.58;4.47;;;6.00;99.90;;;;;;5075353;28;20040;-68
2023/01/30 07:31:54;;;;;;;30.85;4.93;;;6.00;99.90;;;;;;5075412;28;20051;-69
2023/01/30 07:34:19;;;;;;;28.10;4.50;;;6.00;99.90;;;;;;5075256;28;20045;-69
2023/01/30 07:36:45;;;;;;;30.75;5.28;;;6.00;99.90;;;;;;5075287;28;20044;-69
2023/01/30 07:39:10;;;;;;;29.35;4.95;;;6.00;99.90;;;;;;5075266;28;20044;-69
2023/01/30 07:41:36;;;;;;;22.85;5.18;;;6.00;99.90;;;;;;5075312;28;20080;-69
2023/01/30 07:44:02;;;;;;;27.58;5.10;;;6.00;99.90;;;;;;5076478;28;20406;-69
2023/01/30 07:46:33;;;;;;;21.02;4.22;;;6.10;99.90;;;;;;5076628;28;20076;-68
2023/01/30 07:49:04;;;;;;;28.23;5.28;;;6.10;99.90;;;;;;5075184;28;20072;-69
2023/01/30 07:51:30;;;;;;;31.58;6.10;;;6.10;99.90;;;;;;5075204;28;20060;-69
2023/01/30 07:53:55;;;;;;;28.15;4.72;;;6.10;99.90;;;;;;5075343;28;20083;-68
2023/01/30 07:56:21;;;;;;;25.05;4.53;;;6.10;99.90;;;;;;5074990;28;20044;-68
2023/01/30 07:58:48;;;;;;;31.25;4.50;;;6.20;99.90;;;;;;5074875;28;20052;-69
2023/01/30 08:01:14;;;;;;;32.58;4.85;;;6.20;99.90;;;;;;5074653;28;20036;-68
2023/01/30 08:03:39;;;;;;;28.67;5.20;;;6.20;99.90;;;;;;5074999;28;20051;-68
2023/01/30 08:06:05;;;;;;;30.10;4.50;;;6.20;99.90;;;;;;5076197;28;20394;-69
2023/01/30 08:08:31;;;;;;;27.02;4.65;;;6.30;99.90;;;;;;5074690;28;20033;-69
2023/01/30 08:10:57;;;;;;;31.33;5.03;;;6.20;99.90;;;;;;5074583;28;20098;-69
2023/01/30 08:13:22;;;;;;;31.33;5.60;;;6.30;99.90;;;;;;5074625;28;20466;-69
2023/01/30 08:15:49;;;;;;;25.67;5.63;;;6.30;99.90;;;;;;5074557;28;20097;-68
2023/01/30 08:18:14;;;;;;;33.38;5.70;;;6.30;99.90;;;;;;5074451;28;20447;-69
2023/01/30 08:20:41;;;;;;;30.83;4.88;;;6.30;99.90;;;;;;5074659;28;20036;-69
2023/01/30 08:23:07;;;;;;;27.15;5.20;;;6.30;99.90;;;;;;5073578;28;20049;-69
2023/01/30 08:25:34;;;;;;;29.17;5.60;;;6.30;99.90;;;;;;5074359;28;20044;-69
2023/01/30 08:28:00;;;;;;;30.05;5.65;;;6.30;99.90;;;;;;5074348;28;20618;-69
2023/01/30 08:30:29;;;;;;;35.97;4.60;;;6.30;99.90;;;;;;5075551;28;20047;-69
2023/01/30 08:32:54;;;;;;;27.33;5.70;;;6.30;99.90;;;;;;5075478;28;20497;-69
2023/01/30 08:35:20;;;;;;;29.02;5.05;;;6.40;99.90;;;;;;5074184;28;20070;-69
2023/01/30 08:37:46;;;;;;;35.35;5.47;;;6.40;99.90;;;;;;5074430;28;20048;-71
2023/01/30 08:40:12;;;;;;;30.58;5.68;;;6.40;99.90;;;;;;5075569;28;20065;-71
2023/01/30 08:42:37;;;;;;;31.77;4.90;;;6.40;99.90;;;;;;5073952;28;20413;-71
2023/01/30 08:45:03;;;;;;;28.00;5.03;;;6.40;99.90;;;;;;5074053;28;20039;-70
2023/01/30 08:47:31;;;;;;;33.08;5.10;;;6.40;99.90;;;;;;5073990;28;20072;-71
2023/01/30 08:49:57;;;;;;;38.95;5.35;;;6.50;99.90;;;;;;5074947;28;20041;-71
2023/01/30 08:52:22;;;;;;;31.50;4.93;;;6.40;99.90;;;;;;5074341;28;20048;-71
2023/01/30 08:54:48;;;;;;;29.67;5.30;;;6.50;99.90;;;;;;5073791;28;20501;-71
2023/01/30 08:57:14;;;;;;;32.90;5.53;;;6.50;99.90;;;;;;5073794;28;20043;-71
2023/01/30 08:59:40;;;;;;;27.02;4.88;;;6.50;99.90;;;;;;5056998;28;20128;-71
2023/01/30 09:02:09;;;;;;;25.27;4.60;;;6.50;99.90;;;;;;5073597;28;20124;-71
2023/01/30 09:04:34;;;;;;;29.80;5.93;;;6.50;99.90;;;;;;5073619;28;20044;-70
2023/01/30 09:07:00;;;;;;;29.33;4.90;;;6.50;99.90;;;;;;5073896;28;20047;-71
2023/01/30 09:09:27;;;;;;;28.52;5.05;;;6.50;99.90;;;;;;5057093;28;20485;-71
2023/01/30 09:11:53;;;;;;;31.27;5.60;;;6.50;99.90;;;;;;5074879;28;20052;-71
2023/01/30 09:14:19;;;;;;;32.28;5.18;;;6.60;99.90;;;;;;5073489;28;20094;-71
2023/01/30 09:16:54;;;;;;;34.70;6.35;;;6.60;99.90;;;;;;5073437;28;20040;-71
2023/01/30 09:19:21;;;;;;;30.08;5.10;;;6.70;99.90;;;;;;5073568;28;20044;-70
2023/01/30 09:21:48;;;;;;;29.08;5.43;;;6.80;99.90;;;;;;5074733;28;20078;-71
2023/01/30 09:24:14;;;;;;;29.38;5.30;;;6.70;99.90;;;;;;5074534;28;20045;-71
2023/01/30 09:26:43;;;;;;;28.08;4.95;;;6.80;99.90;;;;;;5073485;28;20036;-71
2023/01/30 09:29:13;;;;;;;28.67;5.32;;;6.90;99.90;;;;;;5074373;28;20051;-71
2023/01/30 09:31:39;;;;;;;29.15;5.35;;;6.90;99.90;;;;;;5073078;28;20045;-71
2023/01/30 09:34:06;;;;;;;29.98;4.85;;;7.00;99.90;;;;;;5071944;28;20041;-71
2023/01/30 09:36:32;;;;;;;31.52;5.18;;;7.00;99.90;;;;;;5073263;28;20063;-71
2023/01/30 09:38:58;;;;;;;33.53;5.35;;;7.00;99.90;;;;;;5072915;28;20539;-71
2023/01/30 09:41:53;;;;;;;22.55;4.55;;;7.10;99.90;;;;;;5072804;28;20040;-71
2023/01/30 09:44:46;;;;;;;32.92;5.32;;;7.20;99.90;;;;;;5074148;28;20041;-71
2023/01/30 09:47:15;;;;;;;27.92;5.35;;;7.30;99.90;;;;;;5074384;28;20063;-71
2023/01/30 09:49:44;;;;;;;32.50;5.60;;;7.30;99.90;;;;;;5072564;28;20413;-71
2023/01/30 09:52:27;;;;;;;29.13;5.47;;;7.20;99.90;;;;;;5073171;28;20048;-71
2023/01/30 09:55:04;;;;;;;33.03;5.35;;;7.20;99.90;;;;;;5072666;28;20521;-71
2023/01/30 09:57:30;;;;;;;34.38;6.15;;;7.20;99.90;;;;;;5072553;28;20520;-71
2023/01/30 10:00:01;;;;;;;24.58;4.97;;;7.10;99.90;;;;;;5072725;28;20048;-71
2023/01/30 10:02:56;;;;;;;36.13;6.00;;;7.10;99.90;;;;;;5072397;28;20129;-71
2023/01/30 10:05:29;;;;;;;29.17;5.47;;;7.10;99.90;;;;;;5055801;28;20052;-71
2023/01/30 10:08:07;;;;;;;24.58;4.70;;;7.20;99.90;;;;;;5072477;28;20037;-71
2023/01/30 10:10:49;;;;;;;39.60;6.38;;;7.20;99.90;;;;;;5072355;28;20044;-71
2023/01/30 10:13:27;;;;;;;35.73;6.57;;;7.20;99.90;;;;;;5055725;28;20051;-71
2023/01/30 10:16:15;;;;;;;26.80;5.03;;;7.20;99.90;;;;;;5072304;28;20127;-70
2023/01/30 10:19:05;;;;;;;35.70;6.20;;;7.30;99.90;;;;;;5072238;28;20051;-70
2023/01/30 10:21:51;;;;;;;33.13;6.70;;;7.30;99.90;;;;;;5072301;28;20457;-71
2023/01/30 10:24:25;;;;;;;27.95;5.25;;;7.50;99.90;;;;;;5072250;28;20044;-71
2023/01/30 10:26:52;;;;;;;30.42;5.13;;;7.50;99.90;;;;;;5073393;28;20568;-71
2023/01/30 10:29:27;;;;;;;26.80;4.88;;;7.60;99.90;;;;;;5072286;28;20036;-71
2023/01/30 10:32:08;;;;;;;37.05;5.65;;;7.70;99.90;;;;;;5072136;28;20044;-71
2023/01/30 10:34:39;;;;;;;28.08;5.70;;;7.60;99.90;;;;;;5072354;28;20040;-70
2023/01/30 10:37:26;;;;;;;30.73;5.65;;;7.60;99.90;;;;;;5072058;28;20040;-71
2023/01/30 10:40:13;;;;;;;33.22;6.05;;;7.60;99.90;;;;;;5072225;28;20135;-71
2023/01/30 10:42:46;;;;;;;29.88;5.63;;;7.60;99.90;;;;;;5071997;28;20485;-71
2023/01/30 10:45:20;;;;;;;27.95;5.20;;;7.60;99.90;;;;;;5071827;28;20052;-71
2023/01/30 10:48:15;;;;;;;28.60;5.68;;;7.70;99.90;;;;;;5073743;28;20119;-71
2023/01/30 10:50:58;;;;;;;27.00;4.78;;;7.80;99.90;;;;;;5054967;28;20044;-71
2023/01/30 10:53:41;;;;;;;29.88;5.43;;;7.90;99.90;;;;;;5072140;28;20040;-71
2023/01/30 10:56:19;;;;;;;26.17;5.13;;;8.00;99.90;;;;;;5071787;28;20412;-71
2023/01/30 10:58:57;;;;;;;26.77;4.82;;;8.00;99.90;;;;;;5071789;28;20098;-71
2023/01/30 11:01:43;;;;;;;28.65;5.70;;;8.00;99.90;;;;;;5073424;28;20122;-71
2023/01/30 11:04:31;;;;;;;16.52;2.90;;;7.90;99.90;;;;;;5072001;28;20080;-71
2023/01/30 11:06:58;;;;;;;23.52;3.47;;;7.50;99.90;;;;;;5071751;28;20048;-71
2023/01/30 11:09:41;;;;;;;27.83;4.57;;;7.20;99.90;;;;;;5071601;28;20040;-71
2023/01/30 11:12:07;;;;;;;22.25;3.90;;;7.00;99.90;;;;;;5071685;28;20048;-70
2023/01/30 11:14:51;;;;;;;23.00;4.18;;;6.80;99.90;;;;;;5071640;28;20044;-70
2023/01/30 11:17:18;;;;;;;18.23;3.92;;;6.70;99.90;;;;;;5071588;28;20505;-70
2023/01/30 11:19:44;;;;;;;21.20;4.07;;;6.70;99.90;;;;;;5071498;28;20050;-70
2023/01/30 11:22:13;;;;;;;21.42;3.90;;;6.70;99.90;;;;;;5071464;28;20044;-70
2023/01/30 11:24:43;;;;;;;24.55;4.50;;;7.00;99.90;;;;;;5071509;28;20041;-70
2023/01/30 11:27:23;;;;;;;25.77;4.45;;;7.20;99.90;;;;;;5071482;28;20518;-70
2023/01/30 11:29:51;;;;;;;22.80;3.75;;;7.30;99.90;;;;;;5072710;28;20043;-70
2023/01/30 11:32:28;;;;;;;17.48;2.97;;;7.60;99.90;;;;;;5072675;28;20390;-70
2023/01/30 11:35:06;;;;;;;17.08;3.70;;;7.70;99.90;;;;;;5071407;28;20120;-70
2023/01/30 11:37:34;;;;;;;17.25;3.42;;;7.80;99.90;;;;;;5072617;28;20032;-70
2023/01/30 11:40:13;;;;;;;19.58;4.05;;;8.00;99.90;;;;;;5072496;28;20040;-70
2023/01/30 11:42:46;;;;;;;27.45;4.95;;;8.10;99.90;;;;;;5071296;28;20055;-70
2023/01/30 11:45:12;;;;;;;19.45;3.78;;;8.10;99.90;;;;;;5072224;28;20040;-70
2023/01/30 11:47:45;;;;;;;24.13;4.03;;;8.00;99.90;;;;;;5071601;28;20548;-71
2023/01/30 11:50:16;;;;;;;23.70;3.10;;;7.70;99.90;;;;;;5072333;28;20464;-70
2023/01/30 11:52:43;;;;;;;18.77;3.72;;;7.40;99.90;;;;;;5071540;28;20041;-70
2023/01/30 11:55:19;;;;;;;16.00;3.10;;;7.20;99.90;;;;;;5072769;28;20520;-70
2023/01/30 11:57:52;;;;;;;17.95;2.97;;;7.10;99.90;;;;;;5073122;28;20163;-70
2023/01/30 12:00:40;;;;;;;21.30;3.00;;;7.00;99.90;;;;;;5076352;28;20045;-70
2023/01/30 12:03:10;;;;;;;15.48;2.78;;;7.10;99.90;;;;;;5074790;28;20052;-70
2023/01/30 12:05:41;;;;;;;13.57;2.90;;;7.10;99.90;;;;;;5074810;28;20506;-70
2023/01/30 12:08:31;;;;;;;13.15;2.70;;;7.50;99.90;;;;;;5074777;28;20053;-71
2023/01/30 12:11:00;;;;;;;13.45;2.80;;;8.20;99.90;;;;;;5074596;28;20041;-70
2023/01/30 12:13:37;;;;;;;13.55;2.58;;;8.90;99.90;;;;;;5074601;28;20082;-70
2023/01/30 12:16:40;;;;;;;11.27;2.30;;;9.50;99.90;;;;;;5074887;28;20041;-70
2023/01/30 12:19:37;;;;;;;9.98;2.40;;;10.20;99.90;;;;;;5076127;28;20036;-70
2023/01/30 12:22:21;;;;;;;13.43;2.58;;;10.70;99.90;;;;;;5074440;28;20048;-70
2023/01/30 12:24:58;;;;;;;13.20;2.63;;;10.60;99.90;;;;;;5074493;28;20048;-70
2023/01/30 12:27:42;;;;;;;15.52;3.33;;;10.00;99.90;;;;;;5074446;28;20079;-70
2023/01/30 12:30:31;;;;;;;18.85;2.83;;;9.30;99.90;;;;;;5074282;28;20463;-70
2023/01/30 12:33:02;;;;;;;13.38;2.60;;;8.80;99.90;;;;;;5074237;28;20044;-70
2023/01/30 12:35:44;;;;;;;14.80;3.30;;;8.40;99.90;;;;;;5074256;28;20052;-71
2023/01/30 12:38:30;;;;;;;19.83;3.60;;;8.10;99.90;;;;;;5074247;28;20489;-70
2023/01/30 12:41:09;;;;;;;18.35;2.88;;;8.00;99.90;;;;;;5074155;28;20060;-70
2023/01/30 12:43:49;;;;;;;17.35;3.33;;;7.80;99.90;;;;;;5074151;28;20041;-70
2023/01/30 12:46:23;;;;;;;17.58;3.38;;;7.80;99.90;;;;;;5074079;28;20043;-70
2023/01/30 12:49:01;;;;;;;21.75;3.22;;;7.70;99.90;;;;;;5074035;28;20044;-70
2023/01/30 12:52:02;;;;;;;20.17;2.90;;;7.70;99.90;;;;;;5075057;28;20047;-70
2023/01/30 12:54:54;;;;;;;19.30;3.65;;;7.60;99.90;;;;;;5036180;28;20048;-70
2023/01/30 12:57:33;;;;;;;20.58;3.30;;;8.20;99.90;;;;;;5072881;28;20063;-70
2023/01/30 13:00:15;;;;;;;21.08;3.85;;;9.40;99.90;;;;;;5073756;28;20052;-71
2023/01/30 13:03:04;;;;;;;16.60;3.57;;;10.50;99.90;;;;;;5073688;28;20044;-71
2023/01/30 13:06:05;;;;;;;17.98;3.53;;;11.40;99.90;;;;;;5074574;28;20036;-71
2023/01/30 13:08:37;;;;;;;20.20;3.60;;;11.40;99.90;;;;;;5074610;28;20041;-71